Time;durP1;ratioP1;P1;durP2;ratioP2;P2;SDS_P1;SDS_P2;PMS_P1;PMS_P2;Temp;Humidity;BMP_temperature;BMP_pressure;BME280_temperature;BME280_humidity;BME280_pressure;Samples;Min_cycle;Max_cycle;Signal;HPM_P1;HPM_P2
2023/01/31 00:02:02;;;;;;;39.47;21.05;;;2.00;99.90;;;1.55;100.00;98707.16;4966120;28;20038;-70
2023/01/31 00:04:29;;;;;;;50.22;22.48;;;2.00;99.90;;;1.52;100.00;98702.03;4960559;28;20043;-70
2023/01/31 00:06:56;;;;;;;53.63;21.92;;;2.00;99.90;;;1.52;100.00;98712.25;4959408;28;20061;-71
2023/01/31 00:09:23;;;;;;;56.10;23.42;;;2.00;99.90;;;1.55;100.00;98704.59;4961643;28;20055;-71
2023/01/31 00:11:50;;;;;;;50.75;22.92;;;2.10;99.90;;;1.59;100.00;98699.53;4946774;28;20693;-71
2023/01/31 00:14:19;;;;;;;39.55;20.92;;;2.10;99.90;;;1.67;100.00;98694.53;4958898;28;20062;-70
2023/01/31 00:16:47;;;;;;;48.63;22.40;;;2.10;99.90;;;1.63;100.00;98701.28;4955775;28;20058;-70
2023/01/31 00:19:14;;;;;;;34.75;17.95;;;2.10;99.90;;;1.66;100.00;98693.63;4963036;28;20046;-71
2023/01/31 00:21:42;;;;;;;36.33;19.25;;;2.10;99.90;;;1.70;100.00;98679.19;4959801;28;20062;-71
2023/01/31 00:24:12;;;;;;;48.17;20.98;;;2.10;99.90;;;1.67;100.00;98671.47;4945243;28;20071;-71
2023/01/31 00:26:39;;;;;;;38.47;19.08;;;2.10;99.90;;;1.59;100.00;98666.25;4964651;28;20639;-71
2023/01/31 00:29:07;;;;;;;39.85;18.48;;;2.10;99.90;;;1.61;100.00;98669.69;4962213;28;20070;-70
2023/01/31 00:31:34;;;;;;;48.35;21.88;;;2.00;99.90;;;1.63;100.00;98662.06;4963261;28;20065;-70
2023/01/31 00:34:02;;;;;;;34.60;18.23;;;2.10;99.90;;;1.67;100.00;98663.81;4964693;28;20138;-71
2023/01/31 00:36:32;;;;;;;36.67;18.08;;;2.00;99.90;;;1.65;100.00;98661.22;4966317;28;20053;-70
2023/01/31 00:39:03;;;;;;;41.45;18.13;;;2.00;99.90;;;1.61;100.00;98645.81;4958538;28;20071;-70
2023/01/31 00:41:31;;;;;;;32.33;16.30;;;2.00;99.90;;;1.68;100.00;98657.84;4962766;28;20498;-70
2023/01/31 00:43:59;;;;;;;39.20;17.88;;;2.00;99.90;;;1.61;100.00;98666.28;4961102;28;20039;-71
2023/01/31 00:46:27;;;;;;;48.65;20.63;;;2.00;99.90;;;1.64;100.00;98661.19;4947470;28;20133;-70
2023/01/31 00:48:55;;;;;;;39.60;19.35;;;2.10;99.90;;;1.59;100.00;98661.16;4947168;28;20089;-70
2023/01/31 00:51:25;;;;;;;43.20;18.70;;;2.00;99.90;;;1.55;100.00;98663.66;4958680;28;20058;-71
2023/01/31 00:53:53;;;;;;;38.60;17.55;;;2.00;99.90;;;1.66;100.00;98659.50;4963527;28;20046;-71
2023/01/31 00:56:23;;;;;;;40.03;17.67;;;2.00;99.90;;;1.59;100.00;98652.63;4974785;28;20168;-70
2023/01/31 00:58:51;;;;;;;41.97;19.58;;;2.00;99.90;;;1.51;100.00;98651.69;4963777;28;20545;-70
2023/01/31 01:01:27;;;;;;;43.67;19.80;;;2.00;99.90;;;1.49;100.00;98654.22;4959727;28;20051;-70
2023/01/31 01:03:56;;;;;;;36.25;17.83;;;2.00;99.90;;;1.47;100.00;98653.34;4964918;28;20068;-70
2023/01/31 01:06:25;;;;;;;42.03;21.58;;;2.00;99.90;;;1.49;100.00;98663.63;4958995;28;20138;-70
2023/01/31 01:08:54;;;;;;;32.92;16.98;;;2.00;99.90;;;1.58;100.00;98669.69;4957310;28;20390;-70
2023/01/31 01:11:28;;;;;;;42.25;18.75;;;2.00;99.90;;;1.53;100.00;98665.34;4963828;28;20142;-70
2023/01/31 01:13:57;;;;;;;45.45;19.85;;;1.90;99.90;;;1.57;100.00;98667.94;4975176;28;20454;-70
2023/01/31 01:16:33;;;;;;;37.67;18.83;;;1.90;99.90;;;1.50;100.00;98666.16;4957083;28;20133;-70
2023/01/31 01:19:08;;;;;;;33.53;16.73;;;1.90;99.90;;;1.57;100.00;98679.88;4977079;28;20430;-70
2023/01/31 01:21:39;;;;;;;43.78;22.80;;;1.90;99.90;;;1.45;100.00;98681.47;4961325;28;20050;-70
2023/01/31 01:24:14;;;;;;;43.38;18.98;;;1.90;99.90;;;1.58;100.00;98687.59;4961808;28;20524;-70
2023/01/31 01:26:42;;;;;;;42.00;19.25;;;1.90;99.90;;;1.45;100.00;98683.19;4965117;28;20047;-71
2023/01/31 01:29:09;;;;;;;44.00;20.48;;;1.90;99.90;;;1.44;100.00;98684.88;4962316;28;20409;-70
2023/01/31 01:31:38;;;;;;;42.75;20.33;;;1.90;99.90;;;1.41;100.00;98697.63;4958710;28;20051;-71
2023/01/31 01:34:13;;;;;;;55.33;23.13;;;2.00;99.90;;;1.45;100.00;98694.25;4960164;28;20129;-71
2023/01/31 01:36:41;;;;;;;49.58;21.17;;;1.90;99.90;;;1.49;100.00;98697.72;4962257;28;20055;-71
2023/01/31 01:39:11;;;;;;;57.85;23.95;;;2.00;99.90;;;1.39;100.00;98701.00;4960622;28;20051;-71
2023/01/31 01:41:39;;;;;;;45.33;21.90;;;2.00;99.90;;;1.33;100.00;98699.25;4975723;28;20448;-70
2023/01/31 01:44:46;;;;;;;49.40;23.23;;;2.00;99.90;;;1.38;100.00;98699.28;4947770;28;20061;-70
2023/01/31 01:47:34;;;;;;;53.80;22.55;;;1.90;99.90;;;1.50;100.00;98698.56;4955724;28;20134;-70
2023/01/31 01:50:12;;;;;;;48.28;20.60;;;1.90;99.90;;;1.50;100.00;98706.25;4973367;28;20498;-70
2023/01/31 01:52:49;;;;;;;39.85;18.10;;;1.90;99.90;;;1.37;100.00;98703.56;4962608;28;20061;-71
2023/01/31 01:55:33;;;;;;;58.45;23.20;;;1.80;99.90;;;1.36;100.00;98708.66;4963866;28;20544;-70
2023/01/31 01:58:11;;;;;;;47.20;21.80;;;1.90;99.90;;;1.28;100.00;98710.25;4946392;28;20055;-70
2023/01/31 02:00:38;;;;;;;42.72;21.40;;;1.90;99.90;;;1.38;100.00;98715.50;4960913;28;20102;-70
2023/01/31 02:03:07;;;;;;;53.67;24.30;;;1.90;99.90;;;1.29;100.00;98732.44;4962340;28;20069;-70
2023/01/31 02:05:52;;;;;;;50.67;22.58;;;1.90;99.90;;;1.47;100.00;98730.09;4960009;28;20047;-70
2023/01/31 02:08:23;;;;;;;45.97;21.65;;;1.90;99.90;;;1.37;100.00;98721.47;4946481;28;20078;-70
2023/01/31 02:11:20;;;;;;;47.95;21.95;;;1.80;99.90;;;1.40;100.00;98724.06;4957863;28;20051;-70
2023/01/31 02:13:52;;;;;;;43.83;22.35;;;1.80;99.90;;;1.28;100.00;98725.59;4958979;28;20145;-70
2023/01/31 02:16:19;;;;;;;46.67;22.27;;;1.80;99.90;;;1.41;100.00;98718.09;4956195;28;20061;-71
2023/01/31 02:18:47;;;;;;;48.97;22.92;;;1.80;99.90;;;1.44;100.00;98714.72;4963686;28;20062;-71
2023/01/31 02:21:50;;;;;;;49.22;23.55;;;1.90;99.90;;;1.27;100.00;98716.22;4978985;28;20066;-71
2023/01/31 02:25:12;;;;;;;52.78;25.15;;;1.90;99.90;;;1.20;100.00;98713.56;4961240;28;20058;-70
2023/01/31 02:27:57;;;;;;;43.08;19.35;;;1.90;99.90;;;1.21;100.00;98722.97;4962079;28;20059;-71
2023/01/31 02:30:42;;;;;;;59.08;23.63;;;1.80;99.90;;;1.17;100.00;98717.78;4949743;28;20134;-70
2023/01/31 02:33:22;;;;;;;49.28;21.70;;;1.80;99.90;;;1.28;100.00;98697.44;4948127;28;20134;-70
2023/01/31 02:36:18;;;;;;;42.90;19.75;;;1.70;99.90;;;1.22;100.00;98698.25;4960931;28;20540;-70
2023/01/31 02:38:55;;;;;;;53.28;22.55;;;1.70;99.90;;;1.21;100.00;98699.09;4960910;28;20513;-71
2023/01/31 02:41:35;;;;;;;45.92;21.15;;;1.70;99.90;;;1.20;100.00;98697.38;4959499;28;20055;-70
2023/01/31 02:47:18;;;;;;;50.63;22.30;;;1.70;99.90;;;1.12;100.00;98696.41;4959836;28;20062;-71
2023/01/31 02:50:10;;;;;;;49.60;19.85;;;1.70;99.90;;;1.07;100.00;98695.47;4959657;28;20047;-70
2023/01/31 02:53:12;;;;;;;38.90;19.38;;;1.70;99.90;;;1.11;100.00;98693.00;4961742;28;20511;-71
2023/01/31 02:56:13;;;;;;;50.33;23.45;;;1.70;99.90;;;1.09;100.00;98696.38;4978321;28;20058;-71
2023/01/31 02:59:12;;;;;;;55.53;22.77;;;1.60;99.90;;;1.04;100.00;98697.16;4964497;28;20170;-71
2023/01/31 03:01:45;;;;;;;61.67;23.88;;;1.60;99.90;;;1.03;100.00;98703.13;4959520;28;20057;-70
2023/01/31 03:04:14;;;;;;;54.47;23.30;;;1.50;99.90;;;1.05;100.00;98695.50;4959132;28;20052;-70
2023/01/31 03:06:53;;;;;;;47.13;20.42;;;1.60;99.90;;;1.08;100.00;98694.66;4963176;28;20077;-71
2023/01/31 03:09:35;;;;;;;57.35;24.17;;;1.50;99.90;;;1.07;100.00;98696.34;4962679;28;20116;-70
2023/01/31 03:12:24;;;;;;;59.50;23.52;;;1.40;99.90;;;1.08;100.00;98703.19;4967105;28;20163;-70
2023/01/31 03:15:26;;;;;;;54.30;22.83;;;1.40;99.90;;;0.91;100.00;98710.59;4962938;28;20138;-70
2023/01/31 03:18:00;;;;;;;51.55;21.27;;;1.40;99.90;;;0.93;100.00;98700.41;4950891;28;20054;-71
2023/01/31 03:20:35;;;;;;;64.28;24.13;;;1.40;99.90;;;0.89;100.00;98704.66;4963944;28;20522;-71
2023/01/31 03:23:16;;;;;;;55.55;23.05;;;1.50;99.90;;;0.91;100.00;98700.38;4965377;28;20532;-71
2023/01/31 03:25:47;;;;;;;56.92;22.40;;;1.40;99.90;;;0.96;100.00;98697.91;4961015;28;20054;-71
2023/01/31 03:28:22;;;;;;;54.78;22.58;;;1.40;99.90;;;0.77;100.00;98710.41;4963275;28;20433;-71
2023/01/31 03:30:55;;;;;;;60.05;24.73;;;1.40;99.90;;;0.85;100.00;98710.53;4950624;28;20050;-70
2023/01/31 03:33:28;;;;;;;48.90;21.05;;;1.40;99.90;;;0.80;100.00;98705.38;4962038;28;20066;-70
2023/01/31 03:36:07;;;;;;;59.13;23.52;;;1.40;99.90;;;0.92;100.00;98704.69;4978585;28;20066;-70
2023/01/31 03:38:51;;;;;;;61.20;23.80;;;1.30;99.90;;;0.91;100.00;98707.19;4975302;28;20051;-70
2023/01/31 03:41:32;;;;;;;63.63;24.08;;;1.30;99.90;;;0.76;100.00;98707.84;4951294;28;20057;-70
2023/01/31 03:44:32;;;;;;;49.85;22.92;;;1.30;99.90;;;0.78;100.00;98714.72;4957652;28;20052;-71
2023/01/31 03:47:38;;;;;;;48.17;20.67;;;1.30;99.90;;;0.87;100.00;98707.97;4948158;28;20091;-71
2023/01/31 03:50:12;;;;;;;54.25;20.85;;;1.30;99.90;;;0.77;100.00;98712.13;4966915;28;20039;-71
2023/01/31 03:52:51;;;;;;;55.95;22.30;;;1.20;99.90;;;0.83;100.00;98713.06;4962671;28;20676;-71
2023/01/31 03:55:30;;;;;;;58.20;22.35;;;1.20;99.90;;;0.78;100.00;98719.81;4962657;28;20078;-71
2023/01/31 03:58:02;;;;;;;55.65;22.02;;;1.10;99.90;;;0.82;100.00;98707.91;4964900;28;20054;-71
2023/01/31 04:00:33;;;;;;;59.05;23.00;;;1.20;99.90;;;0.95;100.00;98694.47;4960944;28;20055;-71
2023/01/31 04:03:13;;;;;;;59.53;21.30;;;1.20;99.90;;;0.69;100.00;98703.50;4963317;28;20038;-71
2023/01/31 04:05:41;;;;;;;56.10;23.15;;;1.20;99.90;;;0.70;100.00;98706.06;4973601;28;20371;-71
2023/01/31 04:08:08;;;;;;;38.80;18.50;;;1.30;99.90;;;0.75;100.00;98703.56;4962752;28;20129;-70
2023/01/31 04:10:35;;;;;;;54.75;21.58;;;1.20;99.90;;;0.90;100.00;98708.06;4963352;28;20043;-70
2023/01/31 04:13:02;;;;;;;64.53;22.58;;;1.20;99.90;;;0.67;100.00;98705.16;4963880;28;20497;-71
2023/01/31 04:15:29;;;;;;;46.13;20.90;;;1.20;99.90;;;0.71;100.00;98712.00;4963371;28;20146;-70
2023/01/31 04:17:57;;;;;;;56.97;21.05;;;1.20;99.90;;;0.74;100.00;98715.50;4964671;28;20770;-71
2023/01/31 04:20:24;;;;;;;49.03;22.40;;;1.20;99.90;;;0.99;100.00;98700.50;4962352;28;20385;-70
2023/01/31 04:22:51;;;;;;;59.38;23.25;;;1.20;99.90;;;0.80;100.00;98705.38;4960344;28;20362;-71
2023/01/31 04:25:18;;;;;;;62.60;23.63;;;1.20;99.90;;;0.87;100.00;98705.44;4960820;28;20075;-71
2023/01/31 04:27:45;;;;;;;61.17;22.50;;;1.20;99.90;;;0.75;100.00;98701.00;4959810;28;20062;-70
2023/01/31 04:30:13;;;;;;;57.67;21.80;;;1.20;99.90;;;0.79;100.00;98693.41;4961038;28;20053;-70
2023/01/31 04:32:40;;;;;;;59.20;22.55;;;1.10;99.90;;;0.81;100.00;98691.72;4958894;28;20054;-71
2023/01/31 04:35:08;;;;;;;70.85;22.70;;;1.10;99.90;;;0.88;100.00;98692.69;4963007;28;20516;-71
2023/01/31 04:37:38;;;;;;;58.50;22.83;;;1.10;99.90;;;0.71;100.00;98692.47;4962228;28;20054;-70
2023/01/31 04:40:06;;;;;;;66.53;22.23;;;1.10;99.90;;;0.79;100.00;98687.44;4975903;28;20078;-70
2023/01/31 04:42:36;;;;;;;83.28;21.65;;;1.10;99.90;;;0.62;100.00;98705.94;4949537;28;20174;-71
2023/01/31 04:45:03;;;;;;;97.22;25.75;;;1.10;99.90;;;0.57;100.00;98702.47;4963457;28;20046;-71
2023/01/31 04:47:30;;;;;;;93.28;25.90;;;1.10;99.90;;;0.70;100.00;98708.59;4961900;28;20042;-70
2023/01/31 04:49:57;;;;;;;78.32;24.95;;;1.10;99.90;;;0.72;100.00;98703.53;4977419;28;20055;-71
2023/01/31 04:52:24;;;;;;;96.15;27.85;;;1.10;99.90;;;0.59;100.00;98707.59;4962472;28;20050;-70
2023/01/31 04:54:51;;;;;;;87.90;27.40;;;1.20;99.90;;;0.76;100.00;98702.75;4958612;28;20052;-70
2023/01/31 04:57:18;;;;;;;62.47;24.85;;;1.20;99.90;;;0.69;100.00;98703.50;4960284;28;20066;-70
2023/01/31 04:59:46;;;;;;;78.40;24.77;;;1.20;99.90;;;0.63;100.00;98701.69;4961743;28;20152;-71
2023/01/31 05:02:14;;;;;;;133.63;26.45;;;1.20;99.90;;;0.61;100.00;98698.25;4960881;28;20050;-70
2023/01/31 05:04:40;;;;;;;164.77;26.52;;;1.10;99.90;;;0.56;100.00;98707.56;4961110;28;20145;-70
2023/01/31 05:07:07;;;;;;;112.35;23.08;;;1.10;99.90;;;0.55;100.00;98703.28;4957726;28;20043;-70
2023/01/31 05:09:34;;;;;;;163.35;26.98;;;1.10;99.90;;;0.56;100.00;98700.72;4957501;28;20054;-70
2023/01/31 05:12:02;;;;;;;168.63;28.85;;;1.10;99.90;;;0.62;100.00;98688.06;4961358;28;20054;-71
2023/01/31 05:14:31;;;;;;;91.68;24.27;;;1.00;99.90;;;0.58;100.00;98686.28;4962876;28;20109;-70
2023/01/31 05:16:58;;;;;;;146.85;28.60;;;1.10;99.90;;;0.59;100.00;98693.13;4960227;28;20142;-71
2023/01/31 05:19:25;;;;;;;156.35;28.55;;;1.00;99.90;;;0.51;100.00;98687.03;4964133;28;20072;-71
2023/01/31 05:21:57;;;;;;;101.50;21.50;;;1.00;99.90;;;0.51;100.00;98684.50;4976525;28;20070;-71
2023/01/31 05:24:29;;;;;;;74.88;22.52;;;1.00;99.90;;;0.67;100.00;98679.63;4963831;28;20054;-71
2023/01/31 05:26:58;;;;;;;136.30;26.00;;;1.00;99.90;;;0.59;100.00;98695.69;4951849;28;20059;-71
2023/01/31 05:29:30;;;;;;;92.18;24.48;;;1.00;99.90;;;0.38;100.00;98685.13;4960709;28;20058;-70
2023/01/31 05:32:00;;;;;;;82.30;24.85;;;1.00;99.90;;;0.31;100.00;98702.03;4960443;28;20137;-71
2023/01/31 05:34:31;;;;;;;117.90;26.02;;;1.00;99.90;;;0.27;100.00;98694.31;4973990;28;20051;-70
2023/01/31 05:36:59;;;;;;;81.95;17.63;;;1.00;99.90;;;0.22;100.00;98693.38;4961045;28;20529;-69
2023/01/31 05:39:27;;;;;;;60.35;19.63;;;0.90;99.90;;;0.43;100.00;98690.31;4957428;28;20540;-70
2023/01/31 05:41:54;;;;;;;110.47;21.33;;;0.90;99.90;;;0.26;100.00;98695.16;4966300;28;20292;-70
2023/01/31 05:44:22;;;;;;;139.73;22.00;;;0.80;99.90;;;0.28;100.00;98701.16;4962668;28;20046;-70
2023/01/31 05:46:49;;;;;;;115.10;21.48;;;0.80;99.90;;;0.30;100.00;98692.69;4959247;28;20057;-69
2023/01/31 05:49:16;;;;;;;165.98;23.98;;;0.70;99.90;;;0.25;100.00;98696.88;4959804;28;20055;-70
2023/01/31 05:51:43;;;;;;;68.63;17.73;;;0.70;99.90;;;0.21;100.00;98700.19;4961149;28;20058;-70
2023/01/31 05:54:11;;;;;;;133.20;24.65;;;0.70;99.90;;;0.24;100.00;98701.94;4962390;28;20058;-70
2023/01/31 05:56:38;;;;;;;141.35;24.33;;;0.70;99.90;;;0.03;100.00;98699.88;4966346;28;20058;-70
2023/01/31 05:59:05;;;;;;;78.38;22.35;;;0.70;99.90;;;0.27;100.00;98713.03;4958047;28;20379;-70
2023/01/31 06:01:32;;;;;;;198.32;26.80;;;0.80;99.90;;;0.04;100.00;98724.56;4963479;28;20058;-70
2023/01/31 06:04:02;;;;;;;99.15;20.38;;;0.80;99.90;;;0.11;100.00;98716.16;4975040;28;20047;-70
2023/01/31 06:06:29;;;;;;;81.57;19.05;;;0.80;99.90;;;0.39;100.00;98714.97;4960417;28;20085;-70
2023/01/31 06:08:56;;;;;;;75.35;20.35;;;0.80;99.90;;;0.28;100.00;98716.47;4957847;28;20139;-70
2023/01/31 06:11:24;;;;;;;201.88;28.73;;;0.70;99.90;;;0.18;100.00;98718.88;4956231;28;20066;-70
2023/01/31 06:13:53;;;;;;;91.10;22.08;;;0.80;99.90;;;0.40;100.00;98703.91;4959458;28;20047;-70
2023/01/31 06:16:20;;;;;;;85.93;21.95;;;0.80;99.90;;;0.43;100.00;98711.59;4960058;28;20053;-69
2023/01/31 06:18:48;;;;;;;74.95;20.10;;;0.80;99.90;;;0.25;100.00;98716.41;4958548;28;20062;-70
2023/01/31 06:21:15;;;;;;;75.05;20.58;;;0.80;99.90;;;0.37;100.00;98714.06;4957719;28;20047;-70
2023/01/31 06:23:46;;;;;;;99.68;20.35;;;0.80;99.90;;;0.09;100.00;98713.63;4958040;28;20079;-70
2023/01/31 06:26:13;;;;;;;209.32;27.63;;;0.80;99.90;;;0.23;100.00;98703.63;4962665;28;20055;-70
2023/01/31 06:28:40;;;;;;;128.77;21.38;;;0.80;99.90;;;0.07;100.00;98720.38;4963870;28;20039;-70
2023/01/31 06:31:09;;;;;;;83.75;16.55;;;0.80;99.90;;;0.15;100.00;98707.75;4955324;28;20502;-70
2023/01/31 06:33:37;;;;;;;189.07;20.98;;;0.80;99.90;;;-0.01;100.00;98715.13;4962542;28;20109;-70
2023/01/31 06:36:14;;;;;;;157.60;22.00;;;0.70;99.90;;;0.11;100.00;98703.41;4964670;28;20055;-70
2023/01/31 06:38:49;;;;;;;184.73;20.80;;;0.70;99.90;;;-0.12;100.00;98708.97;4945559;28;20066;-70
2023/01/31 06:41:18;;;;;;;241.05;24.30;;;0.70;99.90;;;-0.06;100.00;98685.25;4962435;28;20054;-70
2023/01/31 06:43:45;;;;;;;114.28;18.08;;;0.70;99.90;;;-0.12;100.00;98711.50;4964109;28;20047;-70
2023/01/31 06:46:12;;;;;;;89.00;17.50;;;0.70;99.90;;;0.01;100.00;98702.41;4963297;28;20055;-70
2023/01/31 06:48:39;;;;;;;86.03;15.82;;;0.70;99.90;;;-0.15;100.00;98719.13;4966734;28;20048;-69
2023/01/31 06:51:06;;;;;;;71.45;15.57;;;0.60;99.90;;;-0.14;100.00;98707.22;4963041;28;20065;-69
2023/01/31 06:53:34;;;;;;;96.53;16.77;;;0.50;99.90;;;-0.34;100.00;98719.59;4967156;28;20046;-69
2023/01/31 06:56:05;;;;;;;85.88;13.57;;;0.60;99.90;;;-0.19;100.00;98727.56;4948917;28;20074;-69
2023/01/31 06:58:34;;;;;;;123.88;16.05;;;0.50;99.90;;;-0.28;100.00;98738.44;4946730;28;20047;-71
2023/01/31 07:01:11;;;;;;;159.52;17.08;;;0.50;99.90;;;-0.12;100.00;98723.41;4967072;28;20039;-71
2023/01/31 07:03:38;;;;;;;37.00;11.20;;;0.50;99.90;;;-0.16;100.00;98730.19;4963699;28;20520;-71
2023/01/31 07:06:07;;;;;;;120.85;16.83;;;0.60;99.90;;;-0.18;100.00;98733.50;4961336;28;20058;-72
2023/01/31 07:08:34;;;;;;;208.93;21.13;;;0.60;99.90;;;-0.14;100.00;98725.94;4969182;28;20058;-71
2023/01/31 07:11:03;;;;;;;143.27;18.98;;;0.60;99.90;;;-0.11;100.00;98727.72;4964315;28;20130;-69
2023/01/31 07:13:31;;;;;;;95.38;16.65;;;0.60;99.90;;;0.07;100.00;98724.59;4948238;28;20734;-71
2023/01/31 07:15:58;;;;;;;92.70;13.93;;;0.60;99.90;;;-0.03;100.00;98747.41;4960529;28;20068;-71
2023/01/31 07:18:25;;;;;;;105.20;17.58;;;0.60;99.90;;;-0.02;100.00;98731.28;4964746;28;20061;-69
2023/01/31 07:20:52;;;;;;;56.13;11.20;;;0.60;99.90;;;0.11;100.00;98732.34;4963664;28;20053;-69
2023/01/31 07:23:19;;;;;;;85.43;16.73;;;0.60;99.90;;;0.14;100.00;98729.88;4972338;28;20075;-71
2023/01/31 07:25:46;;;;;;;91.22;19.55;;;0.80;99.90;;;0.12;100.00;98746.84;4961380;28;20047;-71
2023/01/31 07:28:13;;;;;;;64.07;13.25;;;0.80;99.90;;;0.21;100.00;98728.28;4963657;28;20055;-71
2023/01/31 07:30:42;;;;;;;102.43;20.10;;;0.80;99.90;;;0.26;100.00;98713.03;4968683;28;20126;-71
2023/01/31 07:33:10;;;;;;;102.55;22.30;;;0.80;99.90;;;0.33;100.00;98730.19;4958728;28;20101;-71
2023/01/31 07:35:37;;;;;;;94.15;19.67;;;0.80;99.90;;;0.24;100.00;98745.34;4962288;28;20403;-71
2023/01/31 07:38:04;;;;;;;106.93;22.30;;;0.90;99.90;;;0.40;100.00;98730.28;4963192;28;20051;-72
2023/01/31 07:40:31;;;;;;;86.05;18.92;;;1.00;99.90;;;0.41;100.00;98715.81;4966121;28;20054;-71
2023/01/31 07:42:59;;;;;;;83.43;20.15;;;1.00;99.90;;;0.49;100.00;98724.47;4964151;28;20268;-69
2023/01/31 07:45:27;;;;;;;94.85;22.33;;;1.00;99.90;;;0.43;100.00;98723.50;4960049;28;20621;-69
2023/01/31 07:47:57;;;;;;;107.95;17.52;;;1.10;99.90;;;0.55;100.00;98714.38;4963612;28;20038;-69
2023/01/31 07:50:26;;;;;;;230.25;28.77;;;1.10;99.90;;;0.48;100.00;98719.31;4964548;28;20058;-69
2023/01/31 07:52:53;;;;;;;134.93;23.02;;;1.10;99.90;;;0.49;100.00;98726.19;4963019;28;20138;-69
2023/01/31 07:55:20;;;;;;;135.10;22.98;;;1.10;99.90;;;0.60;100.00;98727.22;4965161;28;20461;-69
2023/01/31 07:57:48;;;;;;;266.00;30.85;;;1.20;99.90;;;0.45;100.00;98732.06;4964482;28;20043;-69
2023/01/31 08:05:47;;;;;;;164.55;26.08;;;1.20;99.90;;;0.55;100.00;98737.34;4968822;28;20151;-70
2023/01/31 08:08:14;;;;;;;97.60;21.30;;;1.30;99.90;;;0.72;100.00;98739.31;4967101;28;20142;-69
2023/01/31 08:10:43;;;;;;;112.05;22.80;;;1.30;99.90;;;0.65;100.00;98748.56;4964280;28;20053;-70
2023/01/31 08:13:10;;;;;;;93.70;20.73;;;1.40;99.90;;;0.75;100.00;98749.56;4964448;28;20051;-70
2023/01/31 08:15:37;;;;;;;90.70;19.98;;;1.40;99.90;;;0.88;100.00;98742.94;4966126;28;20051;-70
2023/01/31 08:18:04;;;;;;;93.63;20.70;;;1.40;99.90;;;0.88;100.00;98748.06;4964147;28;20046;-70
2023/01/31 08:20:33;;;;;;;118.93;24.27;;;1.40;99.90;;;0.82;100.00;98752.25;4964202;28;20453;-70
2023/01/31 08:23:00;;;;;;;99.00;24.45;;;1.40;99.90;;;0.91;100.00;98741.28;4966885;28;20083;-70
2023/01/31 08:25:29;;;;;;;82.75;23.60;;;1.50;99.90;;;1.09;100.00;98739.84;4962559;28;20050;-70
2023/01/31 08:27:57;;;;;;;59.45;19.85;;;1.50;99.90;;;1.02;100.00;98741.44;4973772;28;20059;-70
2023/01/31 08:30:26;;;;;;;84.07;21.20;;;1.50;99.90;;;0.97;100.00;98743.09;4961970;28;20151;-70
2023/01/31 08:32:53;;;;;;;71.03;26.13;;;1.60;99.90;;;1.09;100.00;98739.84;4968148;28;20524;-70
2023/01/31 08:35:21;;;;;;;58.08;18.67;;;1.60;99.90;;;1.06;100.00;98743.22;4959042;28;20058;-70
2023/01/31 08:37:48;;;;;;;61.92;19.73;;;1.60;99.90;;;0.96;100.00;98739.69;4959767;28;20081;-70
2023/01/31 08:40:15;;;;;;;53.75;18.98;;;1.60;99.90;;;1.09;100.00;98733.00;4964201;28;20051;-69
2023/01/31 08:42:43;;;;;;;53.70;18.27;;;1.60;99.90;;;1.01;100.00;98726.97;4964379;28;20051;-70
2023/01/31 08:45:10;;;;;;;54.78;19.70;;;1.60;99.90;;;1.09;100.00;98740.69;4956664;28;20075;-70
2023/01/31 08:47:37;;;;;;;45.10;15.32;;;1.60;99.90;;;1.07;100.00;98744.91;4965104;28;20064;-70
2023/01/31 08:50:07;;;;;;;59.25;21.75;;;1.60;99.90;;;1.19;100.00;98731.47;4965342;28;20081;-70
2023/01/31 08:52:53;;;;;;;53.67;16.38;;;1.70;99.90;;;1.15;100.00;98728.00;4963582;28;20080;-70
2023/01/31 08:55:22;;;;;;;48.42;17.17;;;1.70;99.90;;;1.18;100.00;98747.63;4973058;28;20051;-70
2023/01/31 08:57:50;;;;;;;59.20;18.60;;;1.70;99.90;;;1.15;100.00;98750.16;4967135;28;20055;-70
2023/01/31 09:00:25;;;;;;;61.97;20.45;;;1.80;99.90;;;1.19;100.00;98737.44;4974980;28;20083;-70
2023/01/31 09:02:58;;;;;;;67.35;19.42;;;1.80;99.90;;;1.25;100.00;98728.97;4961924;28;20106;-70
2023/01/31 09:05:28;;;;;;;51.55;20.20;;;1.80;99.90;;;1.16;100.00;98742.50;4959186;28;20429;-70
2023/01/31 09:07:56;;;;;;;44.00;16.30;;;1.80;99.90;;;1.14;100.00;98735.63;4962036;28;20506;-70
2023/01/31 09:10:23;;;;;;;45.95;18.52;;;1.80;99.90;;;1.18;100.00;98725.47;4959089;28;20051;-70
2023/01/31 09:12:50;;;;;;;53.22;19.52;;;1.80;99.90;;;1.12;100.00;98729.63;4960989;28;20051;-70
2023/01/31 09:15:17;;;;;;;64.22;19.73;;;1.80;99.90;;;1.24;100.00;98711.91;4960304;28;20051;-70
2023/01/31 09:17:45;;;;;;;55.13;17.90;;;1.90;99.90;;;1.25;100.00;98734.97;4956402;28;20050;-70
2023/01/31 09:20:12;;;;;;;55.40;16.92;;;1.80;99.90;;;1.17;100.00;98740.81;4951123;28;20051;-70
2023/01/31 09:22:39;;;;;;;60.42;17.75;;;1.80;99.90;;;1.11;100.00;98728.78;4962176;28;20055;-70
2023/01/31 09:25:07;;;;;;;49.15;15.48;;;1.90;99.90;;;1.25;100.00;98717.06;4960133;28;20513;-70
2023/01/31 09:27:37;;;;;;;59.85;19.05;;;1.80;99.90;;;1.22;100.00;98726.38;4951884;28;20173;-70
2023/01/31 09:30:08;;;;;;;75.70;20.52;;;1.90;99.90;;;1.14;100.00;98740.75;4966679;28;20110;-70
2023/01/31 09:32:37;;;;;;;83.70;21.98;;;1.90;99.90;;;1.20;100.00;98731.47;4959908;28;20060;-70
2023/01/31 09:35:05;;;;;;;71.60;22.48;;;1.90;99.90;;;1.26;100.00;98738.38;4961637;28;20479;-70
2023/01/31 09:37:32;;;;;;;83.32;24.15;;;1.80;99.90;;;1.11;100.00;98741.56;4961684;28;20475;-70
2023/01/31 09:39:59;;;;;;;53.67;18.50;;;1.90;99.90;;;1.28;100.00;98734.16;4962309;28;20051;-70
2023/01/31 09:42:39;;;;;;;65.13;20.15;;;1.80;99.90;;;1.32;100.00;98746.09;4960246;28;20478;-70
2023/01/31 09:45:42;;;;;;;79.13;22.38;;;1.70;99.90;;;1.16;100.00;98751.88;4958361;28;20043;-70
2023/01/31 09:48:20;;;;;;;63.60;20.05;;;1.80;99.90;;;1.23;100.00;98722.97;4960865;28;20501;-70
2023/01/31 09:50:54;;;;;;;82.80;25.10;;;1.80;99.90;;;1.14;100.00;98745.88;4960847;28;20042;-70
2023/01/31 09:53:29;;;;;;;50.63;17.25;;;1.90;99.90;;;1.22;100.00;98747.69;4961814;28;20052;-70
2023/01/31 09:56:29;;;;;;;60.40;20.17;;;1.90;99.90;;;1.35;100.00;98735.94;4961863;28;20119;-70
2023/01/31 09:59:22;;;;;;;54.08;19.42;;;2.00;99.90;;;1.53;100.00;98734.44;4961473;28;20047;-70
2023/01/31 10:02:29;;;;;;;72.18;22.23;;;2.00;99.90;;;1.59;100.00;98737.91;4949524;28;20134;-70
2023/01/31 10:05:17;;;;;;;71.47;20.95;;;2.00;99.90;;;1.48;100.00;98734.38;4949344;28;20255;-70
2023/01/31 10:08:20;;;;;;;62.35;20.73;;;2.10;99.90;;;1.54;100.00;98741.28;4965837;28;20127;-70
2023/01/31 10:10:51;;;;;;;51.78;19.48;;;2.20;99.90;;;1.74;100.00;98729.56;4960875;28;20050;-69
2023/01/31 10:13:57;;;;;;;56.70;18.95;;;2.40;99.90;;;1.69;100.00;98741.47;4980715;28;20082;-70
2023/01/31 10:16:37;;;;;;;46.30;19.13;;;2.50;99.90;;;1.99;100.00;98734.97;4949292;28;20138;-70
2023/01/31 10:19:17;;;;;;;42.33;17.10;;;2.50;99.90;;;2.14;100.00;98731.69;4967201;28;20429;-70
2023/01/31 10:21:52;;;;;;;47.97;17.30;;;2.50;99.90;;;2.00;100.00;98706.78;4961099;28;20039;-70
2023/01/31 10:24:45;;;;;;;48.67;17.80;;;2.50;99.90;;;1.94;100.00;98698.19;4948272;28;20054;-70
2023/01/31 10:27:56;;;;;;;54.50;19.38;;;2.50;99.90;;;2.15;100.00;98689.88;4977578;28;20062;-70
2023/01/31 10:30:42;;;;;;;45.47;16.08;;;2.50;99.90;;;2.02;100.00;98688.88;4923646;28;20163;-70
2023/01/31 10:33:43;;;;;;;42.67;15.25;;;2.50;99.90;;;1.97;100.00;98680.31;4967189;28;20058;-70
2023/01/31 10:36:21;;;;;;;59.72;19.85;;;2.60;99.90;;;2.05;100.00;98682.09;4949434;28;20073;-70
2023/01/31 10:39:28;;;;;;;47.75;18.25;;;2.60;99.90;;;1.96;100.00;98707.63;4968629;28;20077;-70
2023/01/31 10:42:35;;;;;;;44.40;17.50;;;2.60;99.90;;;1.94;100.00;98676.03;4963388;28;20434;-70
2023/01/31 10:45:29;;;;;;;50.85;17.65;;;2.70;99.90;;;1.93;100.00;98664.03;4977830;28;20114;-71